createdAt,value
2018-05-16T00:01:30.894Z,24.83
2018-05-16T00:04:04.196Z,24.81
2018-05-16T00:06:35.583Z,24.80
2018-05-16T00:09:11.638Z,24.80
2018-05-16T00:11:43.445Z,24.78
2018-05-16T00:14:20.435Z,24.73
2018-05-16T00:16:55.552Z,24.73
2018-05-16T00:19:28.016Z,24.69
2018-05-16T00:21:58.323Z,24.73
2018-05-16T00:24:36.491Z,24.79
2018-05-16T00:27:06.992Z,24.83
2018-05-16T00:29:41.891Z,24.86
2018-05-16T00:32:14.706Z,24.92
2018-05-16T00:34:52.968Z,24.94
2018-05-16T00:37:26.958Z,24.97
2018-05-16T00:40:01.634Z,24.99
2018-05-16T00:42:37.840Z,24.98
2018-05-16T00:45:11.168Z,25.01
2018-05-16T00:47:48.759Z,25.03
2018-05-16T00:50:25.800Z,25.04
2018-05-16T00:52:59.383Z,25.03
2018-05-16T00:55:33.830Z,25.07
2018-05-16T00:58:05.124Z,25.06
2018-05-16T01:00:38.002Z,25.08
2018-05-16T01:03:12.946Z,25.09
2018-05-16T01:05:50.971Z,25.10
2018-05-16T01:08:24.454Z,25.11
2018-05-16T01:10:58.568Z,25.13
2018-05-16T01:13:31.330Z,25.13
2018-05-16T01:16:05.822Z,25.14
2018-05-16T01:18:40.993Z,25.15
2018-05-16T01:21:15.811Z,25.15
2018-05-16T01:23:52.807Z,25.17
2018-05-16T01:26:29.120Z,25.17
2018-05-16T01:29:01.978Z,25.20
2018-05-16T01:31:38.886Z,25.20
2018-05-16T01:34:13.440Z,25.21
2018-05-16T01:36:46.837Z,25.21
2018-05-16T01:39:20.896Z,25.23
2018-05-16T01:41:55.818Z,25.23
2018-05-16T01:44:31.201Z,25.23
2018-05-16T01:47:08.416Z,25.24
2018-05-16T01:49:43.590Z,25.24
2018-05-16T01:52:23.517Z,25.25
2018-05-16T01:54:57.816Z,25.26
2018-05-16T01:57:36.821Z,25.26
2018-05-16T02:00:17.360Z,25.27
2018-05-16T02:02:51.678Z,25.27
2018-05-16T02:05:24.164Z,25.28
2018-05-16T02:07:59.319Z,25.31
2018-05-16T02:10:32.207Z,25.28
2018-05-16T02:13:11.525Z,25.28
2018-05-16T02:15:45.883Z,25.25
2018-05-16T02:18:21.916Z,25.21
2018-05-16T02:20:55.329Z,25.18
2018-05-16T02:23:27.763Z,25.13
2018-05-16T02:25:59.912Z,25.11
2018-05-16T02:28:42.049Z,25.07
2018-05-16T02:31:17.492Z,25.02
2018-05-16T02:34:01.245Z,25.00
2018-05-16T02:36:41.722Z,24.97
2018-05-16T02:39:12.427Z,24.94
2018-05-16T02:44:32.154Z,24.84
2018-05-16T02:47:06.180Z,24.80
2018-05-16T02:49:37.587Z,24.81
2018-05-16T02:52:09.555Z,24.75
2018-05-16T02:54:42.149Z,24.77
2018-05-16T02:57:17.290Z,24.83
2018-05-16T03:00:05.294Z,24.87
2018-05-16T03:02:39.537Z,24.91
2018-05-16T03:05:18.382Z,24.86
2018-05-16T03:07:52.849Z,24.84
2018-05-16T03:10:32.776Z,24.83
2018-05-16T03:13:07.864Z,24.83
2018-05-16T03:15:43.503Z,24.81
2018-05-16T03:18:19.203Z,24.83
2018-05-16T03:20:51.934Z,24.78
2018-05-16T03:23:32.441Z,24.78
2018-05-16T03:26:06.534Z,24.80
2018-05-16T03:28:40.154Z,24.82
2018-05-16T03:31:14.606Z,24.77
2018-05-16T03:33:50.239Z,24.77
2018-05-16T03:36:26.806Z,24.74
2018-05-16T03:38:59.965Z,24.76
2018-05-16T03:41:32.691Z,24.76
2018-05-16T03:44:04.495Z,24.72
2018-05-16T03:46:35.114Z,24.70
2018-05-16T03:49:07.034Z,24.69
2018-05-16T03:51:40.915Z,24.70
2018-05-16T03:54:15.015Z,24.67
2018-05-16T03:59:51.527Z,24.67
2018-05-16T04:02:37.615Z,24.66
2018-05-16T04:05:11.518Z,24.62
2018-05-16T04:07:46.540Z,24.61
2018-05-16T04:10:24.475Z,24.59
2018-05-16T04:13:01.709Z,24.58
2018-05-16T04:15:32.515Z,24.58
2018-05-16T04:18:09.255Z,24.60
2018-05-16T04:20:43.278Z,24.52
2018-05-16T04:23:22.067Z,24.57
2018-05-16T04:26:05.840Z,24.57
2018-05-16T04:28:41.909Z,24.57
2018-05-16T04:31:20.494Z,24.54
2018-05-16T04:34:07.981Z,24.55
2018-05-16T04:36:39.379Z,24.54
2018-05-16T04:39:14.679Z,24.54
2018-05-16T04:41:52.014Z,24.56
2018-05-16T04:44:28.743Z,24.58
2018-05-16T04:47:03.106Z,24.58
2018-05-16T04:49:36.083Z,24.56
2018-05-16T04:52:09.722Z,24.55
2018-05-16T04:54:45.091Z,24.53
2018-05-16T04:57:19.785Z,24.54
2018-05-16T04:59:55.356Z,24.54
2018-05-16T05:02:29.999Z,24.53
2018-05-16T05:05:05.643Z,24.54
2018-05-16T05:07:38.295Z,24.53
2018-05-16T05:10:09.796Z,24.54
2018-05-16T05:12:42.306Z,24.52
2018-05-16T05:15:17.944Z,24.53
2018-05-16T05:17:55.271Z,24.53
2018-05-16T05:20:29.352Z,24.53
2018-05-16T05:23:00.581Z,24.52
2018-05-16T05:25:34.874Z,24.51
2018-05-16T05:28:20.957Z,24.50
2018-05-16T05:30:58.937Z,24.52
2018-05-16T05:33:42.969Z,24.51
2018-05-16T05:36:18.089Z,24.50
2018-05-16T05:38:49.325Z,24.49
2018-05-16T05:41:20.797Z,24.51
2018-05-16T05:43:52.945Z,24.50
2018-05-16T05:46:36.204Z,24.50
2018-05-16T05:49:11.369Z,24.51
2018-05-16T05:51:48.321Z,24.52
2018-05-16T05:54:19.870Z,24.50
2018-05-16T05:56:54.536Z,24.51
2018-05-16T05:59:28.475Z,24.50
2018-05-16T06:01:58.825Z,24.51
2018-05-16T06:04:32.008Z,24.50
2018-05-16T06:07:07.331Z,24.50
2018-05-16T06:09:44.901Z,24.50
2018-05-16T06:12:20.423Z,24.49
2018-05-16T06:14:52.017Z,24.49
2018-05-16T06:17:32.677Z,24.49
2018-05-16T06:20:09.320Z,24.49
2018-05-16T06:22:42.983Z,24.49
2018-05-16T06:25:16.722Z,24.49
2018-05-16T06:27:59.396Z,24.49
2018-05-16T06:30:34.160Z,24.49
2018-05-16T06:33:12.880Z,24.47
2018-05-16T06:35:46.834Z,24.46
2018-05-16T06:38:21.300Z,24.45
2018-05-16T06:40:56.858Z,24.43
2018-05-16T06:43:31.783Z,24.43
2018-05-16T06:46:08.395Z,24.48
2018-05-16T06:48:45.063Z,24.47
2018-05-16T06:51:21.086Z,24.47
2018-05-16T06:53:55.114Z,24.47
2018-05-16T06:56:28.735Z,24.43
2018-05-16T06:59:07.081Z,24.43
2018-05-16T07:01:44.360Z,24.43
2018-05-16T07:04:17.881Z,24.42
2018-05-16T07:06:47.587Z,24.45
2018-05-16T07:09:19.779Z,24.43
2018-05-16T07:11:51.207Z,24.43
2018-05-16T07:14:23.124Z,24.43
2018-05-16T07:16:53.663Z,24.39
2018-05-16T07:19:26.475Z,24.39
2018-05-16T07:21:58.427Z,24.38
2018-05-16T07:24:30.320Z,24.40
2018-05-16T07:27:01.402Z,24.36
2018-05-16T07:29:33.037Z,24.36
2018-05-16T07:32:04.511Z,24.36
2018-05-16T07:34:37.385Z,24.37
2018-05-16T07:37:06.570Z,24.36
2018-05-16T07:39:38.151Z,24.33
2018-05-16T07:42:08.988Z,24.36
2018-05-16T07:44:40.441Z,24.41
2018-05-16T07:47:12.640Z,24.38
2018-05-16T07:49:44.458Z,24.34
2018-05-16T07:52:17.299Z,24.36
2018-05-16T07:54:46.805Z,24.37
2018-05-16T07:57:19.298Z,24.39
2018-05-16T07:59:50.196Z,24.40
2018-05-16T08:02:20.919Z,24.39
2018-05-16T08:04:50.239Z,24.40
2018-05-16T08:07:20.867Z,24.40
2018-05-16T08:09:50.738Z,24.40
2018-05-16T08:12:22.625Z,24.42
2018-05-16T08:14:54.353Z,24.41
2018-05-16T08:17:27.553Z,24.40
2018-05-16T08:19:58.817Z,24.40
2018-05-16T08:22:29.439Z,24.41
2018-05-16T08:25:00.189Z,24.40
2018-05-16T08:27:31.613Z,24.40
2018-05-16T08:30:05.155Z,24.40
2018-05-16T08:32:35.188Z,24.39
2018-05-16T08:35:06.175Z,24.40
2018-05-16T08:37:38.777Z,24.42
2018-05-16T08:40:10.338Z,24.40
2018-05-16T08:42:42.727Z,24.39
2018-05-16T08:45:12.925Z,24.38
2018-05-16T08:47:42.699Z,24.40
2018-05-16T08:50:14.941Z,24.39
2018-05-16T08:52:45.155Z,24.40
2018-05-16T08:55:17.799Z,24.42
2018-05-16T08:57:49.370Z,24.40
2018-05-16T09:00:21.398Z,24.41
2018-05-16T09:02:53.366Z,24.43
2018-05-16T09:05:23.922Z,24.40
2018-05-16T09:07:54.537Z,24.41
2018-05-16T09:10:31.253Z,24.42
2018-05-16T09:13:01.209Z,24.43
2018-05-16T09:15:33.337Z,24.43
2018-05-16T09:18:06.208Z,24.42
2018-05-16T09:20:36.459Z,24.43
2018-05-16T09:23:06.093Z,24.43
2018-05-16T09:25:37.368Z,24.46
2018-05-16T09:28:08.493Z,24.45
2018-05-16T09:30:39.446Z,24.46
2018-05-16T09:33:09.701Z,24.43
2018-05-16T09:35:40.185Z,24.44
2018-05-16T09:38:10.469Z,24.43
2018-05-16T09:40:43.658Z,24.43
2018-05-16T09:43:16.612Z,24.45
2018-05-16T09:45:46.928Z,24.42
2018-05-16T09:48:16.995Z,24.44
2018-05-16T09:50:48.414Z,24.44
2018-05-16T09:53:19.316Z,24.45
2018-05-16T09:55:50.389Z,24.45
2018-05-16T09:58:20.528Z,24.43
2018-05-16T10:00:50.365Z,24.45
2018-05-16T10:03:20.268Z,24.43
2018-05-16T10:05:51.154Z,24.44
2018-05-16T10:08:20.422Z,24.43
2018-05-16T10:10:57.083Z,24.43
2018-05-16T10:13:36.026Z,24.43
2018-05-16T10:16:07.437Z,24.45
2018-05-16T10:18:37.302Z,24.44
2018-05-16T10:21:07.148Z,24.43
2018-05-16T10:23:39.034Z,24.45
2018-05-16T10:26:10.324Z,24.44
2018-05-16T10:28:42.355Z,24.43
2018-05-16T10:31:13.907Z,24.45
2018-05-16T10:33:46.905Z,24.46
2018-05-16T10:36:18.079Z,24.46
2018-05-16T10:38:49.325Z,24.44
2018-05-16T10:41:20.143Z,24.45
2018-05-16T10:43:50.571Z,24.45
2018-05-16T10:46:22.801Z,24.46
2018-05-16T10:51:31.064Z,24.45
2018-05-16T10:54:02.621Z,24.44
2018-05-16T10:56:35.440Z,24.45
2018-05-16T10:59:05.809Z,24.45
2018-05-16T11:01:34.959Z,24.47
2018-05-16T11:04:06.911Z,24.47
2018-05-16T11:06:37.906Z,24.47
2018-05-16T11:09:09.123Z,24.47
2018-05-16T11:11:40.488Z,24.47
2018-05-16T11:14:11.175Z,24.47
2018-05-16T11:16:40.864Z,24.49
2018-05-16T11:19:13.120Z,24.50
2018-05-16T11:21:46.114Z,24.50
2018-05-16T11:24:17.452Z,24.50
2018-05-16T11:26:48.297Z,24.51
2018-05-16T11:29:18.479Z,24.54
2018-05-16T11:31:50.604Z,24.53
2018-05-16T11:34:20.486Z,24.52
2018-05-16T11:36:50.513Z,24.52
2018-05-16T11:39:28.317Z,24.54
2018-05-16T11:41:59.240Z,24.55
2018-05-16T11:44:29.882Z,24.56
2018-05-16T11:47:01.695Z,24.57
2018-05-16T11:49:33.319Z,24.56
2018-05-16T11:52:09.799Z,24.57
2018-05-16T11:54:40.333Z,24.58
2018-05-16T11:57:10.795Z,24.58
2018-05-16T11:59:40.505Z,24.59
2018-05-16T12:02:10.071Z,24.58
2018-05-16T12:04:40.870Z,24.58
2018-05-16T12:07:10.615Z,24.60
2018-05-16T12:09:41.508Z,24.61
2018-05-16T12:12:12.103Z,24.60
2018-05-16T12:14:43.401Z,24.60
2018-05-16T12:17:13.712Z,24.62
2018-05-16T12:19:44.132Z,24.62
2018-05-16T12:22:16.968Z,24.61
2018-05-16T12:24:46.915Z,24.61
2018-05-16T12:27:18.445Z,24.63
2018-05-16T12:29:48.923Z,24.61
2018-05-16T12:32:19.171Z,24.65
2018-05-16T12:34:50.945Z,24.64
2018-05-16T12:37:20.516Z,24.63
2018-05-16T12:39:50.448Z,24.63
2018-05-16T12:42:21.210Z,24.63
2018-05-16T12:44:53.915Z,24.64
2018-05-16T12:47:25.295Z,24.64
2018-05-16T12:49:54.742Z,24.63
2018-05-16T12:52:25.589Z,24.64
2018-05-16T12:54:58.015Z,24.65
2018-05-16T12:57:28.966Z,24.63
2018-05-16T12:59:59.717Z,24.64
2018-05-16T13:02:30.736Z,24.61
2018-05-16T13:05:01.650Z,24.61
2018-05-16T13:07:31.566Z,24.61
2018-05-16T13:10:03.764Z,24.61
2018-05-16T13:12:36.977Z,24.62
2018-05-16T13:15:14.760Z,24.60
2018-05-16T13:17:50.388Z,24.58
2018-05-16T13:20:20.398Z,24.58
2018-05-16T13:22:53.673Z,24.60
2018-05-16T13:25:23.816Z,24.61
2018-05-16T13:27:53.753Z,24.61
2018-05-16T13:30:23.541Z,24.59
2018-05-16T13:32:55.735Z,24.62
2018-05-16T13:35:28.282Z,24.61
2018-05-16T13:37:59.090Z,24.61
2018-05-16T13:40:30.041Z,24.61
2018-05-16T13:43:01.283Z,24.59
2018-05-16T13:45:33.198Z,24.56
2018-05-16T13:48:06.385Z,24.56
2018-05-16T13:50:36.507Z,24.57
2018-05-16T13:53:07.410Z,24.55
2018-05-16T13:55:39.021Z,24.55
2018-05-16T13:58:10.475Z,24.55
2018-05-16T14:00:43.531Z,24.56
2018-05-16T14:03:14.703Z,24.56
2018-05-16T14:05:47.662Z,24.55
2018-05-16T14:08:19.215Z,24.56
2018-05-16T14:10:50.606Z,24.54
2018-05-16T14:13:20.829Z,24.54
2018-05-16T14:15:51.967Z,24.52
2018-05-16T14:18:24.148Z,24.52
2018-05-16T14:20:57.371Z,24.51
2018-05-16T14:23:27.915Z,24.50
2018-05-16T14:26:00.702Z,24.49
2018-05-16T14:28:31.647Z,24.51
2018-05-16T14:31:03.323Z,24.49
2018-05-16T14:33:35.844Z,24.48
2018-05-16T14:36:05.420Z,24.47
2018-05-16T14:38:34.618Z,24.46
2018-05-16T14:41:04.696Z,24.44
2018-05-16T14:43:36.551Z,24.45
2018-05-16T14:46:08.131Z,24.43
2018-05-16T14:48:37.263Z,24.42
2018-05-16T14:51:12.180Z,24.42
2018-05-16T14:53:43.589Z,24.43
2018-05-16T14:56:13.110Z,24.44
2018-05-16T14:58:45.069Z,24.42
2018-05-16T15:01:17.254Z,24.42
2018-05-16T15:03:48.776Z,24.39
2018-05-16T15:06:20.187Z,24.40
2018-05-16T15:08:52.503Z,24.39
2018-05-16T15:11:24.580Z,24.40
2018-05-16T15:13:55.795Z,24.39
2018-05-16T15:16:28.015Z,24.38
2018-05-16T15:18:59.491Z,24.38
2018-05-16T15:21:29.814Z,24.38
2018-05-16T15:24:02.184Z,24.39
2018-05-16T15:26:34.894Z,24.36
2018-05-16T15:29:07.267Z,24.35
2018-05-16T15:31:38.476Z,24.35
2018-05-16T15:34:10.095Z,24.36
2018-05-16T15:36:42.231Z,24.33
2018-05-16T15:39:14.959Z,24.35
2018-05-16T15:41:45.449Z,24.34
2018-05-16T15:44:16.919Z,24.35
2018-05-16T15:46:46.104Z,24.36
2018-05-16T15:49:15.469Z,24.36
2018-05-16T15:51:46.674Z,24.37
2018-05-16T15:54:17.363Z,24.37
2018-05-16T15:56:48.063Z,24.38
2018-05-16T15:59:19.354Z,24.36
2018-05-16T16:01:51.479Z,24.36
2018-05-16T16:04:21.611Z,24.36
2018-05-16T16:06:50.798Z,24.38
2018-05-16T16:09:22.513Z,24.37
2018-05-16T16:11:53.091Z,24.38
2018-05-16T16:14:24.303Z,24.38
2018-05-16T16:16:54.723Z,24.39
2018-05-16T16:19:30.241Z,24.38
2018-05-16T16:22:03.084Z,24.39
2018-05-16T16:24:34.229Z,24.37
2018-05-16T16:27:07.801Z,24.40
2018-05-16T16:29:43.455Z,24.36
2018-05-16T16:32:16.807Z,24.39
2018-05-16T16:34:47.413Z,24.39
2018-05-16T16:37:18.563Z,24.39
2018-05-16T16:39:50.022Z,24.40
2018-05-16T16:42:21.925Z,24.39
2018-05-16T16:44:53.635Z,24.37
2018-05-16T16:47:23.950Z,24.38
2018-05-16T16:49:57.055Z,24.37
2018-05-16T16:52:27.699Z,24.37
2018-05-16T16:54:58.609Z,24.37
2018-05-16T16:57:29.911Z,24.37
2018-05-16T17:00:01.291Z,24.38
2018-05-16T17:02:33.604Z,24.38
2018-05-16T17:05:10.353Z,24.33
2018-05-16T17:07:40.799Z,24.34
2018-05-16T17:10:12.775Z,24.35
2018-05-16T17:12:44.171Z,24.36
2018-05-16T17:15:16.512Z,24.33
2018-05-16T17:17:48.077Z,24.35
2018-05-16T17:20:19.274Z,24.32
2018-05-16T17:22:50.960Z,24.33
2018-05-16T17:25:20.798Z,24.35
2018-05-16T17:27:51.715Z,24.31
2018-05-16T17:30:22.201Z,24.34
2018-05-16T17:32:52.488Z,24.30
2018-05-16T17:35:22.568Z,24.30
2018-05-16T17:37:55.437Z,24.29
2018-05-16T17:40:25.353Z,24.29
2018-05-16T17:42:57.776Z,24.30
2018-05-16T17:45:28.527Z,24.28
2018-05-16T17:47:59.253Z,24.26
2018-05-16T17:50:31.380Z,24.28
2018-05-16T17:53:00.961Z,24.26
2018-05-16T17:55:30.397Z,24.28
2018-05-16T17:58:02.525Z,24.29
2018-05-16T18:00:33.134Z,24.31
2018-05-16T18:03:05.545Z,24.31
2018-05-16T18:05:35.303Z,24.28
2018-05-16T18:08:07.863Z,24.30
2018-05-16T18:10:43.571Z,24.30
2018-05-16T18:26:56.659Z,24.30
2018-05-16T18:29:27.991Z,24.30
2018-05-16T18:32:01.937Z,24.29
2018-05-16T18:34:35.153Z,24.32
2018-05-16T18:37:06.470Z,24.32
2018-05-16T18:39:38.237Z,24.31
2018-05-16T18:42:09.644Z,24.30
2018-05-16T18:44:40.231Z,24.30
2018-05-16T18:47:10.703Z,24.29
2018-05-16T18:49:40.031Z,24.30
2018-05-16T18:52:10.510Z,24.30
2018-05-16T18:54:41.884Z,24.30
2018-05-16T18:57:12.038Z,24.32
2018-05-16T18:59:42.591Z,24.32
2018-05-16T19:02:14.222Z,24.30
2018-05-16T19:04:45.107Z,24.28
2018-05-16T19:07:17.380Z,24.28
2018-05-16T19:09:48.928Z,24.28
2018-05-16T19:12:19.315Z,24.28
2018-05-16T19:14:48.675Z,24.29
2018-05-16T19:17:20.010Z,24.30
2018-05-16T19:19:50.973Z,24.29
2018-05-16T19:22:22.079Z,24.27
2018-05-16T19:24:52.568Z,24.26
2018-05-16T19:27:25.124Z,24.27
2018-05-16T19:29:58.407Z,24.26
2018-05-16T19:32:30.346Z,24.27
2018-05-16T19:35:00.660Z,24.29
2018-05-16T19:37:31.699Z,24.28
2018-05-16T19:40:01.775Z,24.28
2018-05-16T19:42:32.056Z,24.27
2018-05-16T19:45:05.592Z,24.25
2018-05-16T19:47:38.636Z,24.21
2018-05-16T19:50:09.897Z,24.23
2018-05-16T19:52:41.954Z,24.25
2018-05-16T19:55:14.615Z,24.23
2018-05-16T19:57:47.110Z,24.23
2018-05-16T20:00:16.991Z,24.22
2018-05-16T20:02:49.120Z,24.26
2018-05-16T20:05:18.758Z,24.31
2018-05-16T20:07:48.408Z,24.36
2018-05-16T20:10:18.970Z,24.39
2018-05-16T20:12:49.505Z,24.42
2018-05-16T20:15:18.738Z,24.45
2018-05-16T20:17:49.554Z,24.49
2018-05-16T20:20:19.812Z,24.50
2018-05-16T20:22:50.019Z,24.50
2018-05-16T20:25:20.181Z,24.51
2018-05-16T20:27:50.426Z,24.53
2018-05-16T20:30:21.183Z,24.54
2018-05-16T20:32:56.038Z,24.53
2018-05-16T20:35:28.121Z,24.55
2018-05-16T20:37:58.942Z,24.56
2018-05-16T20:40:31.391Z,24.58
2018-05-16T20:43:01.962Z,24.61
2018-05-16T20:45:41.330Z,24.62
2018-05-16T20:48:12.813Z,24.63
2018-05-16T20:50:43.045Z,24.63
2018-05-16T20:53:15.485Z,24.65
2018-05-16T20:55:49.235Z,24.65
2018-05-16T20:58:22.410Z,24.65
2018-05-16T21:00:55.502Z,24.65
2018-05-16T21:03:30.779Z,24.66
2018-05-16T21:06:08.633Z,24.65
2018-05-16T21:08:39.889Z,24.67
2018-05-16T21:11:12.420Z,24.69
2018-05-16T21:13:45.483Z,24.69
2018-05-16T21:16:18.294Z,24.71
2018-05-16T21:18:54.424Z,24.72
2018-05-16T21:21:36.696Z,24.73
2018-05-16T21:24:06.660Z,24.73
2018-05-16T21:26:40.619Z,24.74
2018-05-16T21:29:17.441Z,24.76
2018-05-16T21:31:54.238Z,24.76
2018-05-16T21:34:29.905Z,24.77
2018-05-16T21:37:03.323Z,24.80
2018-05-16T21:39:38.152Z,24.79
2018-05-16T21:42:11.611Z,24.80
2018-05-16T21:44:44.900Z,24.81
2018-05-16T21:47:20.369Z,24.81
2018-05-16T21:49:55.636Z,24.83
2018-05-16T21:52:28.920Z,24.85
2018-05-16T21:55:02.835Z,24.84
2018-05-16T21:57:40.321Z,24.84
2018-05-16T22:00:12.403Z,24.86
2018-05-16T22:02:47.493Z,24.85
2018-05-16T22:05:18.450Z,24.88
2018-05-16T22:07:52.181Z,24.89
2018-05-16T22:10:25.130Z,24.88
2018-05-16T22:13:00.432Z,24.89
2018-05-16T22:15:32.253Z,24.89
2018-05-16T22:18:10.104Z,24.90
2018-05-16T22:20:44.719Z,24.89
2018-05-16T22:23:20.724Z,24.93
2018-05-16T22:28:41.232Z,24.93
2018-05-16T22:31:20.357Z,24.92
2018-05-16T22:33:58.966Z,24.93
2018-05-16T22:36:43.986Z,24.93
2018-05-16T22:39:25.841Z,24.93
2018-05-16T22:42:02.987Z,24.96
2018-05-16T22:44:42.989Z,24.94
2018-05-16T22:47:20.708Z,24.94
2018-05-16T22:49:50.850Z,24.95
2018-05-16T22:52:21.666Z,24.95
2018-05-16T22:54:54.945Z,24.96
2018-05-16T22:57:35.100Z,24.95
2018-05-16T23:00:12.665Z,24.94
2018-05-16T23:02:45.548Z,24.97
2018-05-16T23:05:30.070Z,24.95
2018-05-16T23:08:08.459Z,24.97
2018-05-16T23:10:50.077Z,24.98
2018-05-16T23:13:23.416Z,24.97
2018-05-16T23:15:57.879Z,24.97
2018-05-16T23:18:32.374Z,24.97
2018-05-16T23:21:08.106Z,24.96
2018-05-16T23:23:41.731Z,24.97
2018-05-16T23:26:18.855Z,24.96
2018-05-16T23:28:51.029Z,24.97
2018-05-16T23:31:22.888Z,24.98
2018-05-16T23:33:55.496Z,24.96
2018-05-16T23:36:30.720Z,24.98
2018-05-16T23:39:01.812Z,24.97
2018-05-16T23:41:35.199Z,24.97
2018-05-16T23:44:08.939Z,24.98
2018-05-16T23:46:43.937Z,24.97
2018-05-16T23:49:15.537Z,24.97
2018-05-16T23:51:51.767Z,24.97
2018-05-16T23:54:30.114Z,24.98
2018-05-16T23:57:01.296Z,24.97
2018-05-16T23:59:37.555Z,24.98
